Palm Springs, California
Current Conditions -  °F | °C
As of 1:53 PM on Friday 24 Oct 2014 (Local Time) from KPSP Reporting Station
Clear Clear  
Wind Chill: 94°   Ceiling: Unl
Heat Index: 94°   Visibility: 10mi
Dew Point: 42°   Wind: 7mph
Humidity: 17%   Direction: 150°SSE
Pressure: 29.94"   Gusts: NA
Location:  33.82°N, 116.51°W
Report Text: KPSP 242053Z 15006KT 10SM CLR 34/06 A2994 RMK AO2 SLP134 T03440056 58024
Loading
Personal Weather Stations






























Interactive Weather Map
Tropical Storm Tracking
New forecast layout! Learn more

10-Day Weather Forecast

Advertisements
Track Severe Weather on mobile